Time;durP1;ratioP1;P1;durP2;ratioP2;P2;SDS_P1;SDS_P2;PMS_P1;PMS_P2;Temp;Humidity;BMP_temperature;BMP_pressure;BME280_temperature;BME280_humidity;BME280_pressure;Samples;Min_cycle;Max_cycle;Signal;HPM_P1;HPM_P2
2023/08/08 00:00:20;;;;;;;1.70;1.60;;;13.00;99.90;;;;;;4982885;28;20239;-86
2023/08/08 00:02:45;;;;;;;1.23;1.23;;;13.10;99.90;;;;;;4991760;28;20178;-79
2023/08/08 00:05:18;;;;;;;1.30;1.30;;;13.10;99.90;;;;;;4994739;28;20174;-81
2023/08/08 00:07:43;;;;;;;1.60;1.50;;;13.10;99.90;;;;;;4988750;28;20221;-84
2023/08/08 00:10:10;;;;;;;1.27;1.27;;;13.10;99.90;;;;;;4981240;28;20182;-84
2023/08/08 00:12:35;;;;;;;2.90;1.33;;;13.10;99.90;;;;;;4981739;28;20166;-81
2023/08/08 00:15:02;;;;;;;1.27;1.27;;;13.20;99.90;;;;;;4981819;28;20591;-81
2023/08/08 00:17:28;;;;;;;1.40;1.30;;;13.20;99.90;;;;;;4981875;28;20261;-84
2023/08/08 00:19:53;;;;;;;1.50;1.50;;;13.20;99.90;;;;;;4981715;28;20212;-83
2023/08/08 00:22:20;;;;;;;2.47;1.80;;;13.20;99.90;;;;;;4986883;28;20175;-78
2023/08/08 00:24:46;;;;;;;1.40;1.27;;;13.20;99.90;;;;;;4987553;28;20178;-77
2023/08/08 00:27:12;;;;;;;1.50;1.40;;;13.20;99.90;;;;;;4988366;28;20203;-78
2023/08/08 00:29:37;;;;;;;1.90;1.40;;;13.20;99.90;;;;;;4979828;28;20209;-80
2023/08/08 00:32:03;;;;;;;1.03;1.03;;;13.10;99.90;;;;;;4962222;28;20182;-80
2023/08/08 00:34:29;;;;;;;1.10;1.10;;;13.20;99.90;;;;;;4962541;28;20223;-81
2023/08/08 00:36:55;;;;;;;1.30;1.30;;;13.20;99.90;;;;;;4979676;28;20225;-80
2023/08/08 00:39:21;;;;;;;1.13;1.13;;;13.20;99.90;;;;;;4979681;28;20637;-79
2023/08/08 00:41:46;;;;;;;1.20;1.20;;;13.20;99.90;;;;;;4979452;28;20190;-80
2023/08/08 00:44:13;;;;;;;1.57;1.30;;;13.20;99.90;;;;;;4981098;28;20225;-80
2023/08/08 00:46:39;;;;;;;1.63;1.53;;;13.10;99.90;;;;;;4981793;28;20212;-82
2023/08/08 00:49:05;;;;;;;1.20;1.20;;;13.10;99.90;;;;;;4991999;28;20181;-78
2023/08/08 00:51:31;;;;;;;1.30;1.30;;;13.10;99.90;;;;;;4993358;28;20179;-78
2023/08/08 00:53:57;;;;;;;1.23;1.23;;;13.00;99.90;;;;;;4995717;28;20222;-81
2023/08/08 00:56:23;;;;;;;1.70;1.60;;;13.00;99.90;;;;;;4993115;28;20189;-81
2023/08/08 00:58:50;;;;;;;1.53;1.30;;;13.00;99.90;;;;;;4997317;28;20199;-77
2023/08/08 01:01:19;;;;;;;1.60;1.50;;;13.00;99.90;;;;;;4997468;28;20176;-77
2023/08/08 01:03:45;;;;;;;1.50;1.40;;;13.00;99.90;;;;;;4983924;28;20731;-80
2023/08/08 01:06:36;;;;;;;1.43;1.33;;;12.90;99.90;;;;;;4988711;28;20181;-87
2023/08/08 01:09:24;;;;;;;1.20;1.20;;;12.90;99.90;;;;;;4982504;28;20190;-83
2023/08/08 01:11:52;;;;;;;2.50;1.30;;;12.80;99.90;;;;;;4992615;28;20172;-79
2023/08/08 01:14:18;;;;;;;1.50;1.40;;;12.90;99.90;;;;;;4976467;28;20331;-81
2023/08/08 01:16:45;;;;;;;1.13;1.13;;;12.80;99.90;;;;;;4984096;28;20181;-86
2023/08/08 01:19:17;;;;;;;1.23;1.13;;;12.80;99.90;;;;;;4985439;28;20190;-88
2023/08/08 01:21:45;;;;;;;1.57;1.47;;;12.90;99.90;;;;;;4986023;28;20166;-86
2023/08/08 01:24:19;;;;;;;3.70;1.47;;;12.90;99.90;;;;;;4985812;28;20671;-84
2023/08/08 01:26:47;;;;;;;1.20;1.20;;;12.70;99.90;;;;;;4985942;28;20684;-87
2023/08/08 01:29:15;;;;;;;0.90;0.90;;;12.70;99.90;;;;;;4984224;28;20214;-82
2023/08/08 01:31:41;;;;;;;1.30;1.30;;;12.70;99.90;;;;;;4997824;28;20163;-81
2023/08/08 01:34:08;;;;;;;1.20;1.20;;;12.70;99.90;;;;;;4984940;28;20211;-83
2023/08/08 01:36:58;;;;;;;1.47;1.37;;;12.60;99.90;;;;;;4982199;28;20178;-87
2023/08/08 01:39:34;;;;;;;1.27;1.27;;;12.60;99.90;;;;;;4981418;28;20171;-87
2023/08/08 01:42:01;;;;;;;1.37;1.33;;;12.50;99.90;;;;;;4989209;28;20244;-76
2023/08/08 01:44:30;;;;;;;1.10;1.10;;;12.50;99.90;;;;;;4992721;28;20198;-86
2023/08/08 01:46:56;;;;;;;1.27;1.27;;;12.50;99.90;;;;;;4983147;28;20631;-87
2023/08/08 01:49:23;;;;;;;1.70;1.33;;;12.50;99.90;;;;;;4981519;28;20215;-88
2023/08/08 01:51:50;;;;;;;1.37;1.37;;;12.50;99.90;;;;;;4981287;28;20173;-87
2023/08/08 01:54:16;;;;;;;1.40;1.40;;;12.50;99.90;;;;;;4980897;28;20196;-82
2023/08/08 01:56:42;;;;;;;1.20;1.20;;;12.40;99.90;;;;;;4980422;28;20187;-85
2023/08/08 01:59:07;;;;;;;1.50;1.40;;;12.30;99.90;;;;;;4980854;28;20269;-84
2023/08/08 02:01:34;;;;;;;1.37;1.37;;;12.30;99.90;;;;;;4980111;28;20198;-85
2023/08/08 02:04:04;;;;;;;1.30;1.30;;;12.40;99.90;;;;;;4964219;28;20188;-83
2023/08/08 02:06:30;;;;;;;1.80;1.10;;;12.40;99.90;;;;;;4982155;28;20167;-83
2023/08/08 02:08:58;;;;;;;1.13;1.10;;;12.30;99.90;;;;;;4981252;28;20174;-81
2023/08/08 02:11:25;;;;;;;1.47;1.20;;;12.20;99.90;;;;;;4981583;28;20203;-87
2023/08/08 02:13:51;;;;;;;1.00;1.00;;;12.10;99.90;;;;;;4982741;28;20182;-84
2023/08/08 02:16:16;;;;;;;1.97;1.70;;;12.10;99.90;;;;;;4989676;28;20192;-79
2023/08/08 02:18:44;;;;;;;1.20;1.20;;;12.10;99.90;;;;;;4988777;28;20228;-85
2023/08/08 02:21:11;;;;;;;1.83;1.73;;;12.10;99.90;;;;;;4981923;28;20213;-87
2023/08/08 02:23:37;;;;;;;1.10;1.10;;;12.00;99.90;;;;;;4981042;28;20641;-86
2023/08/08 02:26:04;;;;;;;1.63;1.23;;;12.00;99.90;;;;;;4992630;28;20189;-79
2023/08/08 02:28:31;;;;;;;1.30;1.27;;;12.00;99.90;;;;;;4986308;28;20193;-85
2023/08/08 02:30:58;;;;;;;0.83;0.83;;;11.90;99.90;;;;;;4959708;28;20545;-77
2023/08/08 02:33:23;;;;;;;1.20;1.20;;;11.90;99.90;;;;;;4979323;28;20174;-75
2023/08/08 02:35:49;;;;;;;0.90;0.90;;;11.80;99.90;;;;;;4988869;28;20222;-76
2023/08/08 02:38:15;;;;;;;2.27;1.10;;;11.80;99.90;;;;;;5003215;28;20223;-84
2023/08/08 02:40:42;;;;;;;1.43;0.87;;;11.70;99.90;;;;;;4998112;28;20664;-87
2023/08/08 02:43:09;;;;;;;1.03;1.03;;;11.70;99.90;;;;;;4990127;28;20198;-86
2023/08/08 02:45:34;;;;;;;1.40;1.27;;;11.60;99.90;;;;;;4986052;28;20663;-84
2023/08/08 02:48:00;;;;;;;1.30;1.20;;;11.60;99.90;;;;;;4985362;28;20186;-84
2023/08/08 02:50:26;;;;;;;1.10;1.10;;;11.60;99.90;;;;;;4967621;28;20205;-86
2023/08/08 02:52:52;;;;;;;1.07;1.07;;;11.70;99.90;;;;;;4982480;28;20233;-84
2023/08/08 02:55:17;;;;;;;1.00;1.00;;;11.80;99.90;;;;;;4982494;28;20210;-83
2023/08/08 02:57:43;;;;;;;1.10;1.10;;;11.70;99.90;;;;;;4982842;28;20172;-86
2023/08/08 03:00:11;;;;;;;1.07;1.00;;;11.60;99.90;;;;;;4967289;28;21020;-82
2023/08/08 03:02:37;;;;;;;1.00;1.00;;;11.60;99.90;;;;;;4986838;28;20170;-84
2023/08/08 03:05:04;;;;;;;0.90;0.90;;;11.50;99.90;;;;;;4986185;28;20187;-79
2023/08/08 03:07:30;;;;;;;1.30;1.30;;;11.50;99.90;;;;;;4984646;28;20179;-83
2023/08/08 03:09:55;;;;;;;0.83;0.83;;;11.50;99.90;;;;;;4993886;28;20180;-78
2023/08/08 03:12:21;;;;;;;1.20;1.10;;;11.50;99.90;;;;;;4997122;28;20172;-84
2023/08/08 03:14:47;;;;;;;1.13;1.10;;;11.40;99.90;;;;;;4967732;28;20210;-84
2023/08/08 03:17:14;;;;;;;1.10;1.10;;;11.40;99.90;;;;;;4982810;28;20229;-86
2023/08/08 03:19:42;;;;;;;2.83;1.13;;;11.40;99.90;;;;;;4985895;28;20245;-77
2023/08/08 03:22:08;;;;;;;0.90;0.90;;;11.30;99.90;;;;;;4977055;28;20186;-76
2023/08/08 03:24:34;;;;;;;1.10;1.10;;;11.30;99.90;;;;;;4992938;28;20183;-79
2023/08/08 03:26:59;;;;;;;1.23;1.13;;;11.30;99.90;;;;;;4980622;28;20173;-80
2023/08/08 03:29:25;;;;;;;0.87;0.87;;;11.30;99.90;;;;;;4979412;28;20556;-86
2023/08/08 03:31:51;;;;;;;3.10;0.93;;;11.30;99.90;;;;;;4979725;28;20177;-85
2023/08/08 03:34:17;;;;;;;1.23;1.20;;;11.40;99.90;;;;;;4979361;28;20743;-87
2023/08/08 03:36:45;;;;;;;1.37;1.27;;;11.40;99.90;;;;;;4983893;28;20181;-87
2023/08/08 03:39:11;;;;;;;1.20;1.10;;;11.40;99.90;;;;;;4980764;28;20191;-84
2023/08/08 03:41:37;;;;;;;1.03;1.03;;;11.20;99.90;;;;;;4982189;28;20508;-84
2023/08/08 03:44:03;;;;;;;1.70;0.90;;;11.10;99.90;;;;;;4982137;28;20188;-85
2023/08/08 03:46:29;;;;;;;1.80;0.90;;;11.10;99.90;;;;;;4988217;28;20273;-88
2023/08/08 03:48:55;;;;;;;1.30;1.13;;;11.10;99.90;;;;;;4999304;28;20178;-80
2023/08/08 03:51:21;;;;;;;1.40;1.30;;;11.10;99.90;;;;;;4990284;28;20259;-87
2023/08/08 03:53:47;;;;;;;1.30;1.10;;;11.00;99.90;;;;;;4979793;28;20221;-82
2023/08/08 03:56:13;;;;;;;1.20;1.20;;;11.00;99.90;;;;;;4979785;28;20218;-83
2023/08/08 03:58:39;;;;;;;1.33;1.20;;;10.90;99.90;;;;;;4981744;28;20172;-82
2023/08/08 04:01:05;;;;;;;1.20;1.20;;;10.80;99.90;;;;;;4990516;28;20187;-76
2023/08/08 04:03:31;;;;;;;1.53;1.43;;;10.80;99.90;;;;;;4963520;28;20179;-83
2023/08/08 04:05:56;;;;;;;2.60;1.50;;;10.90;99.90;;;;;;4978702;28;20174;-85
2023/08/08 04:08:22;;;;;;;1.17;1.17;;;10.90;99.90;;;;;;4979765;28;20559;-85
2023/08/08 04:10:48;;;;;;;0.97;0.97;;;11.10;99.90;;;;;;4984490;28;20186;-86
2023/08/08 04:13:14;;;;;;;1.80;0.97;;;11.00;99.90;;;;;;4995427;28;20181;-85
2023/08/08 04:15:39;;;;;;;1.30;1.20;;;11.00;99.90;;;;;;4996483;28;20229;-85
2023/08/08 04:18:08;;;;;;;2.00;1.13;;;11.00;99.90;;;;;;5001416;28;20227;-82
2023/08/08 04:20:34;;;;;;;1.30;1.20;;;11.10;99.90;;;;;;4983609;28;20185;-85
2023/08/08 04:23:00;;;;;;;1.83;1.73;;;11.10;99.90;;;;;;4980064;28;20179;-83
2023/08/08 04:25:27;;;;;;;1.20;1.20;;;11.20;99.90;;;;;;4979303;28;20176;-82
2023/08/08 04:27:53;;;;;;;1.60;1.50;;;11.10;99.90;;;;;;4979588;28;20680;-84
2023/08/08 04:30:19;;;;;;;1.80;1.70;;;11.20;99.90;;;;;;4961568;28;20175;-83
2023/08/08 04:32:45;;;;;;;1.50;1.40;;;11.20;99.90;;;;;;4945719;28;20218;-86
2023/08/08 04:35:13;;;;;;;0.90;0.90;;;11.30;99.90;;;;;;4978950;28;20215;-85
2023/08/08 04:37:40;;;;;;;2.93;1.50;;;11.30;99.90;;;;;;4979460;28;20267;-84
2023/08/08 04:40:08;;;;;;;1.10;1.10;;;11.30;99.90;;;;;;4978799;28;20190;-86
2023/08/08 04:42:34;;;;;;;2.20;1.50;;;11.30;99.90;;;;;;4979391;28;20653;-82
2023/08/08 04:45:00;;;;;;;1.83;1.20;;;11.40;99.90;;;;;;4977635;28;20258;-78
2023/08/08 04:47:25;;;;;;;1.20;1.20;;;11.50;99.90;;;;;;4978675;28;20207;-83
2023/08/08 04:49:51;;;;;;;1.50;1.40;;;11.60;99.90;;;;;;4981435;28;20675;-77
2023/08/08 04:52:17;;;;;;;1.40;1.30;;;11.70;99.90;;;;;;4994764;28;20236;-81
2023/08/08 04:54:44;;;;;;;1.33;1.33;;;11.70;99.90;;;;;;4986354;28;20202;-80
2023/08/08 04:57:09;;;;;;;1.57;1.47;;;11.70;99.90;;;;;;4983120;28;20188;-82
2023/08/08 04:59:36;;;;;;;2.13;1.33;;;11.70;99.90;;;;;;4982177;28;20178;-86
2023/08/08 05:02:01;;;;;;;1.77;1.67;;;11.80;99.90;;;;;;4966126;28;20177;-77
2023/08/08 05:04:27;;;;;;;1.20;1.10;;;11.80;99.90;;;;;;4997359;28;20174;-83
2023/08/08 05:06:53;;;;;;;1.40;1.10;;;11.80;99.90;;;;;;4982208;28;20182;-82
2023/08/08 05:09:20;;;;;;;1.80;1.70;;;11.90;99.90;;;;;;4992858;28;20178;-80
2023/08/08 05:11:46;;;;;;;3.83;1.63;;;11.90;99.90;;;;;;4979947;28;20645;-77
2023/08/08 05:14:12;;;;;;;1.53;1.43;;;12.00;99.90;;;;;;4977691;28;20216;-81
2023/08/08 05:16:37;;;;;;;1.20;1.10;;;12.10;99.90;;;;;;4978022;28;20606;-78
2023/08/08 05:19:03;;;;;;;1.70;1.37;;;12.10;99.90;;;;;;4984455;28;20181;-79
2023/08/08 05:21:29;;;;;;;4.63;1.10;;;12.10;99.90;;;;;;4979208;28;20289;-81
2023/08/08 05:23:55;;;;;;;1.30;1.30;;;12.10;99.90;;;;;;4976505;28;20179;-83
2023/08/08 05:26:21;;;;;;;1.20;1.20;;;12.20;99.90;;;;;;4977774;28;20178;-80
2023/08/08 05:28:46;;;;;;;1.70;1.60;;;12.30;99.90;;;;;;4982629;28;20539;-77
2023/08/08 05:31:12;;;;;;;1.40;1.30;;;12.30;99.90;;;;;;4984464;28;20262;-76
2023/08/08 05:33:38;;;;;;;2.10;1.50;;;12.40;99.90;;;;;;4977145;28;20177;-77
2023/08/08 05:36:04;;;;;;;2.93;1.67;;;12.50;99.90;;;;;;4975129;28;20253;-76
2023/08/08 05:38:31;;;;;;;1.50;1.47;;;12.60;99.90;;;;;;4976522;28;20176;-78
2023/08/08 05:40:57;;;;;;;1.60;1.50;;;12.70;99.90;;;;;;4975902;28;20232;-77
2023/08/08 05:43:23;;;;;;;1.57;1.47;;;12.80;99.90;;;;;;4976666;28;20174;-76
2023/08/08 05:45:48;;;;;;;1.40;1.30;;;12.80;99.90;;;;;;4981499;28;20230;-85
2023/08/08 05:48:15;;;;;;;1.90;1.80;;;12.90;99.90;;;;;;4981261;28;20193;-86
2023/08/08 05:50:41;;;;;;;1.67;1.57;;;12.90;99.90;;;;;;4979614;28;20538;-88
2023/08/08 05:53:07;;;;;;;2.10;1.37;;;12.90;99.90;;;;;;4967139;28;20219;-82
2023/08/08 05:55:33;;;;;;;1.80;1.70;;;12.80;99.90;;;;;;4996880;28;20213;-79
2023/08/08 05:57:59;;;;;;;4.83;1.80;;;12.90;99.90;;;;;;4992908;28;20198;-85
2023/08/08 06:00:25;;;;;;;1.70;1.60;;;12.90;99.90;;;;;;4979154;28;20254;-86
2023/08/08 06:02:51;;;;;;;2.10;1.77;;;13.00;99.90;;;;;;4979843;28;20654;-82
2023/08/08 06:05:17;;;;;;;2.67;1.67;;;13.10;99.90;;;;;;4968564;28;20179;-83
2023/08/08 06:07:43;;;;;;;2.60;1.60;;;13.30;99.90;;;;;;4985072;28;20253;-83
2023/08/08 06:10:10;;;;;;;3.50;1.30;;;13.40;99.90;;;;;;4977680;28;20213;-84
2023/08/08 06:12:36;;;;;;;1.53;1.43;;;13.50;99.90;;;;;;4959729;28;20265;-83
2023/08/08 06:15:03;;;;;;;1.50;1.40;;;13.60;99.90;;;;;;4979068;28;20242;-82
2023/08/08 06:17:29;;;;;;;1.47;1.47;;;13.70;99.90;;;;;;4960625;28;20182;-83
2023/08/08 06:19:56;;;;;;;1.60;1.20;;;13.90;99.90;;;;;;4979456;28;20225;-84
2023/08/08 06:22:23;;;;;;;1.47;1.37;;;14.10;99.90;;;;;;4977465;28;20261;-83
2023/08/08 06:24:49;;;;;;;1.23;1.23;;;14.20;99.90;;;;;;4976784;28;20206;-80
2023/08/08 06:27:15;;;;;;;1.60;1.50;;;14.40;99.90;;;;;;4960469;28;20182;-81
2023/08/08 06:29:41;;;;;;;1.47;1.37;;;14.50;99.90;;;;;;4988152;28;20166;-81
2023/08/08 06:32:08;;;;;;;1.57;1.57;;;14.60;99.90;;;;;;4988206;28;20233;-81
2023/08/08 06:34:33;;;;;;;1.67;1.57;;;14.70;99.90;;;;;;4977307;28;20295;-84
2023/08/08 06:36:59;;;;;;;1.10;1.10;;;15.00;99.90;;;;;;4981871;28;20180;-83
2023/08/08 06:39:25;;;;;;;1.50;1.40;;;15.10;99.90;;;;;;4977770;28;20698;-82
2023/08/08 06:41:51;;;;;;;2.33;1.37;;;15.20;99.90;;;;;;4977876;28;20669;-83
2023/08/08 06:44:17;;;;;;;1.10;1.10;;;15.10;99.90;;;;;;4994193;28;20183;-80
2023/08/08 06:46:43;;;;;;;1.43;1.33;;;15.00;99.90;;;;;;4986173;28;20194;-87
2023/08/08 06:49:10;;;;;;;1.37;1.23;;;15.00;99.90;;;;;;4964638;28;20227;-87
2023/08/08 06:51:36;;;;;;;2.73;1.10;;;14.90;99.90;;;;;;4980828;28;20674;-86
2023/08/08 06:54:03;;;;;;;1.13;1.10;;;14.90;99.90;;;;;;4977280;28;20592;-81
2023/08/08 06:56:29;;;;;;;1.30;1.30;;;14.80;99.90;;;;;;4976809;28;20191;-77
2023/08/08 06:58:55;;;;;;;1.20;1.17;;;14.80;99.90;;;;;;4975331;28;20240;-81
2023/08/08 07:01:20;;;;;;;1.47;1.37;;;14.90;99.90;;;;;;4960917;28;20179;-86
2023/08/08 07:03:46;;;;;;;1.40;1.30;;;15.10;99.90;;;;;;4978918;28;20180;-86
2023/08/08 07:06:12;;;;;;;1.33;1.23;;;15.20;99.90;;;;;;4960006;28;20737;-85
2023/08/08 07:08:41;;;;;;;1.20;1.20;;;15.30;99.90;;;;;;4981859;28;20178;-86
2023/08/08 07:11:07;;;;;;;1.70;0.90;;;15.50;99.90;;;;;;4977402;28;20187;-83
2023/08/08 07:13:32;;;;;;;1.40;1.27;;;15.60;99.90;;;;;;4980522;28;20208;-86
2023/08/08 07:15:58;;;;;;;1.20;1.10;;;15.80;99.90;;;;;;4976259;28;20247;-86
2023/08/08 07:18:24;;;;;;;1.23;1.23;;;15.90;99.90;;;;;;4977681;28;20704;-86
2023/08/08 07:20:51;;;;;;;1.27;0.87;;;16.00;99.90;;;;;;4979766;28;20179;-87
2023/08/08 07:23:17;;;;;;;0.90;0.90;;;16.10;99.90;;;;;;4982813;28;20217;-80
2023/08/08 07:25:43;;;;;;;1.10;1.10;;;16.10;99.90;;;;;;4983652;28;20545;-85
2023/08/08 07:28:10;;;;;;;1.30;1.20;;;16.20;99.90;;;;;;4983340;28;20182;-85
2023/08/08 07:30:38;;;;;;;1.10;1.10;;;16.40;99.90;;;;;;4984627;28;20234;-85
2023/08/08 07:33:04;;;;;;;1.53;1.30;;;16.40;99.90;;;;;;4994921;28;20186;-83
2023/08/08 07:35:29;;;;;;;1.20;1.20;;;16.50;99.90;;;;;;5001771;28;20190;-83
2023/08/08 07:37:55;;;;;;;1.20;1.10;;;16.70;99.90;;;;;;4989855;28;20648;-81
2023/08/08 07:40:21;;;;;;;1.37;1.37;;;16.90;99.90;;;;;;4992165;28;20186;-83
2023/08/08 07:42:48;;;;;;;1.40;1.33;;;16.90;99.90;;;;;;4983291;28;20182;-83
2023/08/08 07:45:15;;;;;;;1.20;1.20;;;17.00;99.90;;;;;;4982304;28;20260;-83
2023/08/08 07:47:40;;;;;;;1.30;1.20;;;16.90;99.90;;;;;;4981016;28;20167;-82
2023/08/08 07:50:08;;;;;;;1.37;1.27;;;17.10;99.90;;;;;;4983256;28;20614;-84
2023/08/08 07:52:36;;;;;;;1.30;1.20;;;17.30;99.90;;;;;;4986507;28;20234;-85
2023/08/08 07:55:03;;;;;;;1.40;1.30;;;17.30;99.90;;;;;;4984121;28;20268;-84
2023/08/08 07:57:30;;;;;;;1.20;1.20;;;17.20;99.90;;;;;;4983467;28;20171;-85
2023/08/08 07:59:56;;;;;;;1.67;1.57;;;17.20;99.90;;;;;;4983749;28;20181;-85
2023/08/08 08:02:22;;;;;;;1.00;1.00;;;17.30;99.90;;;;;;4989175;28;20656;-87
2023/08/08 08:04:47;;;;;;;1.77;1.17;;;17.40;99.90;;;;;;4984123;28;20205;-83
2023/08/08 08:07:13;;;;;;;2.10;1.30;;;17.40;99.90;;;;;;4997734;28;20171;-82
2023/08/08 08:09:42;;;;;;;1.30;1.20;;;17.40;99.90;;;;;;4994703;28;20183;-75
2023/08/08 08:12:09;;;;;;;1.10;1.00;;;17.40;99.90;;;;;;4988437;28;20230;-83
2023/08/08 08:14:34;;;;;;;1.03;1.00;;;17.50;99.90;;;;;;4974347;28;20226;-78
2023/08/08 08:17:00;;;;;;;1.00;1.00;;;17.50;99.90;;;;;;4986341;28;20170;-79
2023/08/08 08:19:27;;;;;;;1.20;1.20;;;17.50;99.90;;;;;;4991757;28;20185;-77
2023/08/08 08:21:53;;;;;;;1.13;1.13;;;17.50;99.90;;;;;;4989807;28;20179;-78
2023/08/08 08:24:18;;;;;;;1.37;1.07;;;17.50;99.90;;;;;;4999358;28;20604;-76
2023/08/08 08:26:44;;;;;;;1.20;1.20;;;17.40;99.90;;;;;;4987251;28;20170;-76
2023/08/08 08:29:10;;;;;;;1.80;1.70;;;17.60;99.90;;;;;;4986630;28;20175;-77
2023/08/08 08:31:37;;;;;;;2.37;0.90;;;17.60;99.90;;;;;;4984343;28;20601;-77
2023/08/08 08:34:03;;;;;;;0.70;0.70;;;17.70;99.90;;;;;;4981988;28;20178;-78
2023/08/08 08:36:29;;;;;;;0.93;0.93;;;17.80;99.90;;;;;;4980744;28;20229;-76
2023/08/08 08:38:55;;;;;;;0.90;0.90;;;17.90;99.90;;;;;;4979432;28;20182;-76
2023/08/08 08:41:27;;;;;;;1.20;1.13;;;17.90;99.90;;;;;;4981489;28;20170;-77
2023/08/08 08:43:54;;;;;;;1.00;1.00;;;17.90;99.90;;;;;;4982579;28;20218;-78
2023/08/08 08:46:21;;;;;;;0.83;0.83;;;18.10;99.90;;;;;;4978978;28;20166;-79
2023/08/08 08:48:50;;;;;;;1.00;1.00;;;18.20;99.90;;;;;;4979339;28;20240;-78
2023/08/08 08:51:16;;;;;;;0.83;0.83;;;18.30;99.90;;;;;;4963211;28;20174;-83
2023/08/08 08:53:46;;;;;;;0.80;0.80;;;18.40;99.90;;;;;;4978917;28;20712;-84
2023/08/08 08:56:16;;;;;;;1.70;0.90;;;18.50;99.90;;;;;;4977905;28;20209;-84
2023/08/08 08:58:42;;;;;;;1.00;1.00;;;18.50;99.90;;;;;;4978854;28;20614;-82
2023/08/08 09:01:09;;;;;;;1.10;1.10;;;18.50;99.90;;;;;;4978287;28;20181;-85
2023/08/08 09:03:36;;;;;;;2.10;1.10;;;18.60;99.80;;;;;;4978638;28;20592;-83
2023/08/08 09:06:04;;;;;;;1.10;1.10;;;18.60;99.90;;;;;;4978519;28;20630;-81
2023/08/08 09:08:30;;;;;;;1.10;1.10;;;18.70;99.90;;;;;;4979684;28;20171;-79
2023/08/08 09:10:56;;;;;;;1.17;1.07;;;18.60;99.90;;;;;;4996715;28;20198;-83
2023/08/08 09:13:26;;;;;;;1.07;1.07;;;18.70;99.90;;;;;;4999330;28;20190;-82
2023/08/08 09:15:53;;;;;;;1.13;1.13;;;18.80;99.90;;;;;;4965811;28;20202;-85
2023/08/08 09:18:19;;;;;;;1.03;1.03;;;18.90;99.90;;;;;;4961331;28;20175;-80
2023/08/08 09:20:49;;;;;;;1.50;1.40;;;19.00;99.90;;;;;;4978156;28;20540;-84
2023/08/08 09:23:15;;;;;;;1.80;1.10;;;19.00;99.90;;;;;;4977927;28;20179;-82
2023/08/08 09:25:41;;;;;;;2.20;1.20;;;19.00;98.80;;;;;;4978172;28;20201;-80
2023/08/08 09:28:07;;;;;;;1.20;1.20;;;19.00;98.80;;;;;;4978704;28;20186;-84
2023/08/08 09:30:34;;;;;;;2.27;1.20;;;19.20;98.90;;;;;;4979051;28;20189;-84
2023/08/08 09:33:01;;;;;;;2.27;1.60;;;19.20;98.90;;;;;;4978853;28;20180;-80
2023/08/08 09:35:30;;;;;;;1.30;1.30;;;19.40;99.60;;;;;;4977979;28;20210;-81
2023/08/08 09:37:56;;;;;;;1.20;1.20;;;19.60;98.90;;;;;;4978444;28;20174;-83
2023/08/08 09:40:23;;;;;;;1.20;1.20;;;19.70;98.70;;;;;;4978503;28;20232;-80
2023/08/08 09:42:52;;;;;;;1.27;1.00;;;19.80;97.70;;;;;;4977204;28;20181;-83
2023/08/08 09:45:18;;;;;;;1.30;1.20;;;19.90;97.70;;;;;;4960049;28;20211;-82
2023/08/08 09:47:44;;;;;;;0.87;0.87;;;20.00;97.00;;;;;;4982175;28;20182;-76
2023/08/08 09:50:09;;;;;;;1.60;1.47;;;20.00;96.70;;;;;;4992150;28;20233;-82
2023/08/08 09:52:40;;;;;;;1.40;1.30;;;20.20;96.30;;;;;;4993527;28;20229;-81
2023/08/08 09:55:06;;;;;;;1.40;1.30;;;20.40;97.70;;;;;;4987763;28;20273;-81
2023/08/08 09:57:34;;;;;;;1.60;1.50;;;20.60;97.60;;;;;;4991098;28;20190;-82
2023/08/08 10:00:02;;;;;;;1.20;1.20;;;20.70;97.90;;;;;;4986324;28;20261;-78
2023/08/08 10:02:29;;;;;;;1.20;1.20;;;20.60;96.50;;;;;;4994069;28;20165;-79
2023/08/08 10:04:58;;;;;;;1.27;1.27;;;20.60;97.20;;;;;;4980402;28;20276;-79
2023/08/08 10:07:23;;;;;;;1.07;1.07;;;20.50;96.50;;;;;;4976491;28;20626;-77
2023/08/08 10:09:49;;;;;;;2.00;1.90;;;20.40;96.30;;;;;;4976072;28;20189;-79
2023/08/08 10:12:16;;;;;;;2.33;2.10;;;20.20;95.60;;;;;;4979419;28;20716;-80
2023/08/08 10:14:43;;;;;;;1.37;1.30;;;20.10;96.00;;;;;;4959712;28;20236;-83
2023/08/08 10:17:12;;;;;;;1.40;1.40;;;20.10;96.30;;;;;;4978345;28;20175;-81
2023/08/08 10:19:38;;;;;;;1.47;1.37;;;20.20;96.50;;;;;;4976353;28;20257;-85
2023/08/08 10:22:05;;;;;;;2.07;1.97;;;20.30;96.70;;;;;;4976449;28;20266;-81
2023/08/08 10:24:38;;;;;;;1.70;1.60;;;20.30;95.90;;;;;;4975992;28;20182;-83
2023/08/08 10:27:05;;;;;;;5.40;4.53;;;20.20;94.90;;;;;;4978532;28;20577;-82
2023/08/08 10:29:33;;;;;;;2.53;2.33;;;20.10;96.30;;;;;;4977883;28;20179;-80
2023/08/08 10:32:07;;;;;;;1.53;1.47;;;20.20;95.20;;;;;;4969653;28;20265;-83
2023/08/08 10:34:46;;;;;;;2.00;1.90;;;20.30;94.50;;;;;;4991720;28;20186;-83
2023/08/08 10:37:23;;;;;;;1.53;1.10;;;20.40;95.30;;;;;;4979074;28;20618;-83
2023/08/08 10:39:58;;;;;;;1.50;0.90;;;20.50;94.30;;;;;;4977686;28;20218;-84
2023/08/08 10:42:26;;;;;;;1.00;1.00;;;20.50;94.90;;;;;;4979242;28;20260;-81
2023/08/08 10:44:54;;;;;;;0.90;0.90;;;20.60;94.00;;;;;;4977544;28;20170;-83
2023/08/08 10:47:36;;;;;;;1.00;1.00;;;20.60;93.90;;;;;;4977870;28;20182;-85
2023/08/08 10:50:14;;;;;;;1.03;1.03;;;20.50;93.00;;;;;;4992957;28;20143;-84
2023/08/08 10:53:01;;;;;;;1.03;1.00;;;20.50;94.40;;;;;;4998149;28;20230;-78
2023/08/08 10:55:33;;;;;;;0.93;0.93;;;20.70;93.90;;;;;;4984024;28;20657;-83
2023/08/08 10:58:07;;;;;;;1.00;1.00;;;20.80;93.80;;;;;;4983155;28;20167;-83
2023/08/08 11:00:35;;;;;;;0.83;0.83;;;20.80;93.30;;;;;;4963920;28;20185;-86
2023/08/08 11:03:04;;;;;;;1.50;0.90;;;20.80;92.30;;;;;;4980571;28;20177;-84
2023/08/08 11:05:32;;;;;;;1.00;1.00;;;20.80;92.80;;;;;;4980852;28;20634;-82
2023/08/08 11:08:00;;;;;;;0.77;0.77;;;20.80;93.90;;;;;;4963764;28;20539;-84
2023/08/08 11:10:31;;;;;;;0.80;0.80;;;20.90;93.70;;;;;;4980386;28;20189;-84
2023/08/08 11:13:04;;;;;;;0.90;0.90;;;20.90;94.40;;;;;;4980017;28;20202;-83
2023/08/08 11:15:33;;;;;;;1.00;1.00;;;21.00;94.10;;;;;;4979556;28;20198;-79
2023/08/08 11:18:00;;;;;;;0.97;0.97;;;21.10;93.60;;;;;;4962264;28;20261;-81
2023/08/08 11:20:31;;;;;;;1.20;1.10;;;21.10;93.20;;;;;;4961943;28;20543;-79
2023/08/08 11:22:57;;;;;;;1.00;1.00;;;21.20;92.70;;;;;;4979524;28;20158;-77
2023/08/08 11:25:26;;;;;;;0.93;0.93;;;21.10;93.30;;;;;;4978918;28;20167;-79
2023/08/08 11:27:53;;;;;;;1.60;1.10;;;21.10;93.90;;;;;;4984621;28;20250;-77
2023/08/08 11:30:20;;;;;;;1.03;1.03;;;21.10;94.20;;;;;;4974852;28;20178;-83
2023/08/08 11:32:50;;;;;;;2.10;0.93;;;21.10;93.60;;;;;;4980330;28;20170;-87
2023/08/08 11:35:22;;;;;;;0.90;0.90;;;21.10;94.10;;;;;;4962589;28;20239;-85
2023/08/08 11:37:50;;;;;;;0.83;0.83;;;21.20;94.50;;;;;;4981784;28;20182;-86
2023/08/08 11:40:16;;;;;;;0.90;0.90;;;21.10;95.10;;;;;;4994642;28;20182;-81
2023/08/08 11:42:44;;;;;;;1.00;1.00;;;21.10;95.00;;;;;;4989087;28;20191;-81
2023/08/08 11:45:13;;;;;;;1.00;0.80;;;21.20;94.40;;;;;;4980536;28;20224;-78
2023/08/08 11:47:40;;;;;;;1.23;1.00;;;21.30;94.10;;;;;;4980267;28;20197;-78
2023/08/08 11:50:08;;;;;;;0.90;0.90;;;21.40;95.30;;;;;;4980725;28;20269;-76
2023/08/08 11:52:41;;;;;;;1.00;1.00;;;21.50;94.60;;;;;;4978225;28;20248;-76
2023/08/08 11:55:11;;;;;;;1.00;1.00;;;21.50;94.70;;;;;;4977935;28;20206;-79
2023/08/08 11:57:38;;;;;;;0.90;0.90;;;21.70;94.70;;;;;;4987272;28;20198;-81
2023/08/08 12:00:09;;;;;;;1.00;1.00;;;21.90;94.30;;;;;;4989742;28;20178;-85
2023/08/08 12:02:35;;;;;;;0.90;0.90;;;21.90;93.80;;;;;;4979072;28;20171;-83
2023/08/08 12:05:12;;;;;;;0.80;0.80;;;21.90;94.00;;;;;;4978223;28;20216;-82
2023/08/08 12:07:44;;;;;;;1.00;1.00;;;21.80;92.70;;;;;;4960711;28;20191;-85
2023/08/08 12:10:17;;;;;;;0.90;0.90;;;21.80;93.00;;;;;;4960952;28;20274;-84
2023/08/08 12:12:43;;;;;;;0.77;0.77;;;21.80;92.80;;;;;;4978221;28;20198;-81
2023/08/08 12:15:10;;;;;;;0.80;0.80;;;21.80;92.80;;;;;;4978116;28;20203;-84
2023/08/08 12:17:39;;;;;;;0.80;0.80;;;21.80;92.40;;;;;;4978732;28;20175;-83
2023/08/08 12:20:07;;;;;;;0.73;0.73;;;21.70;92.40;;;;;;4978889;28;20257;-84
2023/08/08 12:22:34;;;;;;;1.43;1.37;;;21.60;93.20;;;;;;4978448;28;20170;-84
2023/08/08 12:25:00;;;;;;;2.43;2.07;;;21.70;93.40;;;;;;4978637;28;20171;-83
2023/08/08 12:27:26;;;;;;;1.10;1.10;;;21.70;93.60;;;;;;4981966;28;20179;-83
2023/08/08 12:29:53;;;;;;;1.00;1.00;;;21.80;93.20;;;;;;5000666;28;20166;-83
2023/08/08 12:32:26;;;;;;;1.30;1.20;;;21.80;93.70;;;;;;4996966;28;20171;-86
2023/08/08 12:34:52;;;;;;;0.80;0.80;;;21.80;93.20;;;;;;4982864;28;20198;-82
2023/08/08 12:37:19;;;;;;;1.57;0.77;;;22.00;92.80;;;;;;4982633;28;20664;-87
2023/08/08 12:39:45;;;;;;;1.90;0.97;;;22.00;92.60;;;;;;4980466;28;20179;-82
2023/08/08 12:42:11;;;;;;;1.30;1.30;;;22.00;92.70;;;;;;4979033;28;20175;-86
2023/08/08 12:44:37;;;;;;;0.90;0.90;;;22.00;93.00;;;;;;4978575;28;20179;-86
2023/08/08 12:47:02;;;;;;;0.90;0.90;;;22.00;93.20;;;;;;4961719;28;20205;-85